Latest Coastal Weather Observations for Melbourne (Olympic Park)

IDV60701

Issued at 9:02 pm EST Saturday 25 June 2022 (issued every 10 minutes, with the page automatically refreshed every 10 minutes)

About coastal observations | Map of coastal stations | Coastal observations for VIC | Marine services | Other Formats
Station Details ID: 086338 Name: MELBOURNE (OLYMPIC PARK) Lat: -37.83 Lon: 144.98 Height: 7.53 m
Data from the previous 72 hours. | See also: Recent months at Melbourne (Olympic Park)
Date/Time
EST
Wind Sea
Height
m
Swell Vis
km
Cloud Weather Temp
°C
Press
MSL
hPa
Rain since
9am
mm
Dir  Spd
kts
Gust
kts
Height
m
Period
s
Dir
25/09:00pm N 8 12 - - - - 10 - - 12.4 1020.4 0.0
25/08:30pm N 10 16 - - - - 10 - - 12.7 1020.0 0.0
25/08:00pm N 8 13 - - - - 10 - - 12.7 1020.1 0.0
25/07:30pm N 8 15 - - - - 10 - - 13.0 1020.0 0.0
25/07:00pm N 9 16 - - - - 10 - - 13.0 1019.7 0.0
25/06:30pm N 8 13 - - - - 10 - - 12.9 1019.5 0.0
25/06:00pm N 8 12 - - - - 10 - - 13.7 1019.3 0.0
25/05:30pm NNW 7 11 - - - - 10 - - 14.1 1019.3 0.0
25/05:00pm NNW 8 11 - - - - 10 - - 14.0 1019.1 0.0
25/04:30pm NNW 11 19 - - - - 10 - - 14.9 1019.1 0.0
25/04:00pm NNW 11 17 - - - - 10 - - 15.2 1019.1 0.0
25/03:30pm NNW 9 16 - - - - 10 - - 15.6 1019.0 0.0
25/03:00pm NNW 10 17 - - - - 10 - - 15.8 1018.9 0.0
25/02:30pm NNW 11 16 - - - - 10 - - 15.5 1018.9 0.0
25/02:00pm N 11 16 - - - - 10 - - 15.6 1019.0 0.0
25/01:30pm NNW 8 15 - - - - 10 - - 15.3 1019.2 0.0
25/01:00pm NW 9 17 - - - - 10 - - 15.6 1019.3 0.0
25/12:30pm NNW 13 21 - - - - 10 - - 15.3 1019.4 0.0
25/12:00pm NNW 11 19 - - - - 10 - - 14.9 1019.6 0.0
25/11:30am NNW 10 19 - - - - 10 - - 14.7 1019.9 0.0
25/11:00am NNW 8 13 - - - - 10 - - 14.5 1020.0 0.0
25/10:30am NNW 11 17 - - - - 10 - - 13.7 1020.2 0.0
25/10:00am NNW 8 14 - - - - 10 - - 13.4 1020.3 0.0
25/09:30am N 5 8 - - - - 10 - - 12.8 1020.0 0.0
25/09:00am N 6 8 - - - - 10 - - 11.7 1019.6 0.2
25/08:30am N 7 11 - - - - 10 - - 10.6 1019.2 0.2
25/08:00am N 7 11 - - - - 10 - - 10.5 1019.1 0.2
25/07:30am N 8 12 - - - - 10 - - 10.6 1019.0 0.2
25/07:00am N 8 14 - - - - 10 - - 10.6 1018.6 0.2
25/06:30am N 7 10 - - - - 10 - - 10.0 1018.3 0.2
25/06:00am N 8 13 - - - - 10 - - 10.4 1018.1 0.2
25/05:30am N 7 11 - - - - 10 - - 10.3 1017.8 0.2
25/05:00am N 7 9 - - - - 10 - - 10.6 1017.6 0.2
25/04:30am N 5 7 - - - - 10 - - 11.1 1017.3 0.2
25/04:00am N 7 9 - - - - 10 - - 12.0 1017.2 0.2
25/03:30am N 8 12 - - - - 10 - - 11.9 1017.1 0.2
25/03:00am N 7 10 - - - - 10 - - 11.7 1017.2 0.2
25/02:30am N 7 13 - - - - 10 - - 12.0 1017.3 0.2
25/02:00am N 7 10 - - - - 10 - - 11.7 1017.2 0.2
25/01:30am N 6 9 - - - - 10 - - 11.8 1017.1 0.2
25/01:00am N 4 7 - - - - 10 - - 12.1 1017.2 0.2
25/12:30am N 4 7 - - - - 10 - - 11.9 1017.3 0.2
25/12:00am N 5 7 - - - - 10 - - 11.9 1017.4 0.2
 
Date/Time
EST
Wind Sea
Height
m
Swell Vis
km
Cloud Weather Temp
°C
Press
MSL
hPa
Rain since
9am
mm
Dir  Spd
kts
Gust
kts
Height
m
Period
s
Dir
24/11:30pm N 4 6 - - - - 10 - - 11.9 1017.6 0.2
24/11:00pm NNW 4 6 - - - - 10 - - 11.5 1017.6 0.2
24/10:30pm N 5 6 - - - - 10 - - 11.6 1017.5 0.2
24/10:00pm CALM 0 0 - - - - 10 - - 10.3 1017.6 0.2
24/09:41pm CALM 0 0 - - - - 10 - - 9.8 1017.6 0.2
24/09:30pm CALM 0 0 - - - - 7 - - 9.6 1017.6 0.2
24/09:28pm CALM 0 0 - - - - 7 - - 9.5 1017.6 0.2
24/09:19pm CALM 0 0 - - - - 10 - - 9.5 1017.5 0.2
24/09:00pm CALM 0 0 - - - - 5 - - 9.6 1017.4 0.2
24/08:58pm CALM 0 0 - - - - 7 - - 9.7 1017.4 0.2
24/08:30pm CALM 0 0 - - - - 10 - - 10.4 1017.4 0.2
24/08:00pm WSW 3 5 - - - - 10 - - 11.8 1017.5 0.2
24/07:30pm SW 4 6 - - - - 10 - - 12.4 1017.3 0.2
24/07:00pm SW 4 7 - - - - 10 - - 12.6 1017.1 0.2
24/06:30pm WNW 4 8 - - - - 10 - - 12.1 1016.5 0.2
24/06:00pm CALM 0 0 - - - - 10 - - 11.6 1016.2 0.2
24/05:30pm WNW 1 4 - - - - 10 - - 11.7 1015.8 0.2
24/05:00pm NW 4 6 - - - - 10 - - 13.3 1015.6 0.2
24/04:30pm NW 3 8 - - - - 10 - - 14.6 1015.4 0.2
24/04:00pm CALM 0 2 - - - - 10 - - 13.9 1015.5 0.2
24/03:30pm S 3 4 - - - - 10 - - 13.2 1015.3 0.2
24/03:00pm SW 6 10 - - - - 10 - - 13.3 1015.4 0.2
24/02:30pm WNW 6 11 - - - - 10 - - 16.7 1014.8 0.2
24/02:00pm WSW 4 8 - - - - 10 - - 15.6 1014.8 0.2
24/01:30pm W 5 8 - - - - 10 - - 16.8 1015.0 0.2
24/01:00pm NW 5 9 - - - - 10 - - 15.8 1015.1 0.2
24/12:30pm NW 8 13 - - - - 10 - - 14.6 1015.3 0.2
24/12:00pm NW 8 14 - - - - 10 - - 14.8 1015.5 0.2
24/11:30am NW 8 13 - - - - 10 - - 14.7 1015.6 0.2
24/11:00am NNW 6 9 - - - - 10 - - 13.5 1015.7 0.2
24/10:30am W 5 10 - - - - 10 - - 12.6 1015.9 0.2
24/10:00am WNW 6 13 - - - - 10 - - 13.0 1015.7 0.2
24/09:45am NNW 5 9 - - - - 10 - - 12.8 1015.4 0.0
24/09:30am NNW 7 11 - - - - 6 - - 12.6 1015.2 0.0
24/09:14am WNW 4 8 - - - - 7 - - 12.9 1015.1 0.0
24/09:00am NW 3 5 - - - - 10 - Drizzle 13.0 1014.9 4.8
24/08:30am N 5 8 - - - - 10 - - 12.9 1014.4 4.8
24/08:00am N 6 8 - - - - 10 - - 12.7 1014.1 4.8
24/07:30am N 7 11 - - - - 10 - - 12.6 1013.7 4.8
24/07:00am N 7 11 - - - - 10 - - 12.1 1013.3 4.8
24/06:46am N 7 9 - - - - 10 - - 11.8 1013.1 4.6
24/06:30am N 7 10 - - - - 7 - - 11.7 1013.0 4.4
24/06:28am N 7 10 - - - - 7 - - 11.7 1012.9 4.4
24/06:00am N 8 12 - - - - 10 - Rain 11.8 1012.4 4.0
24/05:54am N 7 11 - - - - 10 - - 11.8 1012.3 4.0
24/05:37am N 8 12 - - - - 7 - - 11.9 1012.4 3.0
24/05:30am N 8 12 - - - - 10 - - 12.2 1012.4 2.4
24/05:00am N 9 14 - - - - 10 - - 13.1 1012.1 0.2
24/04:30am N 9 13 - - - - 10 - - 13.6 1012.0 0.0
24/04:00am N 9 16 - - - - 10 - - 13.5 1012.2 0.0
24/03:30am NNW 9 15 - - - - 10 - - 14.2 1012.4 0.0
24/03:00am N 10 17 - - - - 10 - - 14.2 1012.6 0.0
24/02:30am N 10 16 - - - - 10 - - 14.2 1012.9 0.0
24/02:00am N 12 22 - - - - 10 - - 14.2 1012.8 0.0
24/01:30am N 13 22 - - - - 10 - - 14.1 1012.7 0.0
24/01:00am N 14 24 - - - - 10 - - 14.1 1013.2 0.0
24/12:30am N 13 21 - - - - 10 - - 14.1 1013.5 0.0
24/12:20am N 15 26 - - - - 10 - - 14.1 1013.5 0.0
24/12:00am N 13 23 - - - - 10 - - 14.0 1013.7 0.0
 
Date/Time
EST
Wind Sea
Height
m
Swell Vis
km
Cloud Weather Temp
°C
Press
MSL
hPa
Rain since
9am
mm
Dir  Spd
kts
Gust
kts
Height
m
Period
s
Dir
23/11:30pm N 12 24 - - - - 10 - - 14.2 1014.0 0.0
23/11:00pm N 13 21 - - - - 10 - - 14.2 1014.2 0.0
23/10:30pm N 9 18 - - - - 10 - - 14.3 1014.6 0.0
23/10:00pm N 11 16 - - - - 10 - - 14.9 1015.0 0.0
23/09:30pm N 10 16 - - - - 10 - - 14.7 1015.4 0.0
23/09:00pm N 8 11 - - - - 10 - - 14.7 1015.9 0.0
23/08:30pm N 11 17 - - - - 10 - - 14.7 1015.9 0.0
23/08:00pm N 11 17 - - - - 10 - - 14.7 1016.1 0.0
23/07:30pm N 9 16 - - - - 10 - - 14.8 1016.1 0.0
23/07:00pm N 11 17 - - - - 10 - - 14.7 1016.3 0.0
23/06:30pm N 12 18 - - - - 10 - - 14.9 1016.5 0.0
23/06:00pm N 10 16 - - - - 10 - - 14.9 1016.5 0.0
23/05:30pm NNW 11 18 - - - - 10 - - 14.8 1016.4 0.0
23/05:00pm N 9 15 - - - - 10 - - 15.1 1016.6 0.0
23/04:30pm N 10 16 - - - - 10 - - 15.0 1016.5 0.0
23/04:00pm N 11 17 - - - - 10 - - 15.2 1016.8 0.0
23/03:30pm N 11 14 - - - - 10 - - 15.4 1017.1 0.0
23/03:00pm N 12 20 - - - - 10 - - 15.7 1017.1 0.0
23/02:30pm N 12 16 - - - - 10 - - 16.0 1017.3 0.0
23/02:00pm NNW 11 19 - - - - 10 - - 16.4 1017.6 0.0
23/01:30pm NNW 11 19 - - - - 10 - - 16.4 1018.1 0.0
23/01:00pm N 8 13 - - - - 10 - - 16.1 1018.7 0.0
23/12:30pm N 10 15 - - - - 10 - - 15.6 1019.6 0.0
23/12:00pm N 12 17 - - - - 10 - - 15.5 1019.9 0.0
23/11:30am NNW 9 16 - - - - 10 - - 15.6 1020.6 0.0
23/11:00am NNW 11 19 - - - - 10 - - 15.2 1020.9 0.0
23/10:30am N 8 14 - - - - 10 - - 15.4 1021.3 0.0
23/10:00am N 7 11 - - - - 10 - - 14.8 1021.6 0.0
23/09:30am NNE 6 9 - - - - 10 - - 14.0 1021.5 0.0
23/09:00am N 6 10 - - - - 10 - - 13.2 1021.8 0.2
23/08:30am N 6 9 - - - - 10 - - 12.6 1021.9 0.2
23/08:00am N 6 9 - - - - 10 - - 12.2 1021.5 0.2
23/07:30am N 6 9 - - - - 10 - - 12.7 1021.6 0.2
23/07:00am N 8 11 - - - - 10 - - 12.4 1021.5 0.2
23/06:30am N 6 10 - - - - 10 - - 12.4 1021.3 0.2
23/06:00am N 7 9 - - - - 10 - - 12.3 1021.2 0.2
23/05:30am N 6 9 - - - - 10 - - 12.4 1021.3 0.2
23/05:00am N 7 10 - - - - 10 - - 12.6 1021.1 0.2
23/04:30am NNW 8 11 - - - - 10 - - 12.6 1021.3 0.2
23/04:00am N 7 9 - - - - 10 - - 12.7 1021.7 0.2
23/03:30am NNW 8 11 - - - - 10 - - 13.0 1022.1 0.2
23/03:00am NNW 7 11 - - - - 10 - - 12.6 1022.2 0.2
23/02:30am N 6 10 - - - - 10 - - 12.6 1022.7 0.2
23/02:00am N 6 9 - - - - 10 - - 12.5 1022.7 0.2
23/01:30am N 7 11 - - - - 10 - - 12.4 1022.7 0.2
23/01:00am N 7 11 - - - - 10 - - 12.4 1023.1 0.2
23/12:30am N 7 11 - - - - 10 - - 12.5 1023.1 0.2
23/12:00am N 7 11 - - - - 10 - Recent precip. 12.4 1023.2 0.2
 
Date/Time
EST
Wind Sea
Height
m
Swell Vis
km
Cloud Weather Temp
°C
Press
MSL
hPa
Rain since
9am
mm
Dir  Spd
kts
Gust
kts
Height
m
Period
s
Dir
22/11:30pm N 7 11 - - - - 10 - - 12.4 1023.4 0.2
22/11:19pm N 7 11 - - - - 10 - - 12.4 1023.4 0.2
22/11:00pm N 8 13 - - - - 6 - - 12.2 1023.6 0.0
22/10:59pm N 8 13 - - - - 7 - - 12.3 1023.6 0.0
22/10:30pm N 8 13 - - - - 10 - - 12.5 1023.7 0.0
22/10:00pm N 9 13 - - - - 10 - - 12.6 1024.0 0.0
22/09:30pm N 7 11 - - - - 10 - - 12.4 1023.9 0.0

Other formats

Comma delimited format used in spreadsheet applications
http://www.bom.gov.au/fwo/IDV60701/IDV60701.95936.axf

JavaScript Object Notation format (JSON) in row-major order
http://www.bom.gov.au/fwo/IDV60701/IDV60701.95936.json

Data quality

Most of these data are generated automatically and are frequently updated. Quality checks on data are not normally performed. It is possible for incorrect values to appear. Refer to information at About Latest Weather Observations and please check the disclaimer before using these data.